sensor_id;sensor_type;location;lat;lon;timestamp;pressure;altitude;pressure_sealevel;temperature;humidity
73171;BME280;61381;50.118;19.962;2024-02-28T00:00:24;98366.63;;;15.91;76.55
73171;BME280;61381;50.118;19.962;2024-02-28T00:05:45;98371.06;;;15.69;79.18
73171;BME280;61381;50.118;19.962;2024-02-28T00:10:46;98389.19;;;14.82;81.71
73171;BME280;61381;50.118;19.962;2024-02-28T00:15:48;98374.41;;;14.70;84.30
73171;BME280;61381;50.118;19.962;2024-02-28T00:20:49;98380.94;;;14.87;82.95
73171;BME280;61381;50.118;19.962;2024-02-28T00:25:50;98372.19;;;14.72;83.59
73171;BME280;61381;50.118;19.962;2024-02-28T00:30:52;98369.50;;;14.72;83.29
73171;BME280;61381;50.118;19.962;2024-02-28T00:35:53;98389.81;;;15.57;78.50
73171;BME280;61381;50.118;19.962;2024-02-28T00:40:54;98391.75;;;15.48;78.44
73171;BME280;61381;50.118;19.962;2024-02-28T00:45:56;98395.38;;;14.91;80.98
73171;BME280;61381;50.118;19.962;2024-02-28T00:50:57;98387.38;;;14.59;83.35
73171;BME280;61381;50.118;19.962;2024-02-28T00:55:58;98384.44;;;14.38;84.24
73171;BME280;61381;50.118;19.962;2024-02-28T01:01:00;98381.25;;;14.76;82.20
73171;BME280;61381;50.118;19.962;2024-02-28T01:06:01;98376.81;;;14.89;80.88
73171;BME280;61381;50.118;19.962;2024-02-28T01:11:03;98381.13;;;15.08;79.30
73171;BME280;61381;50.118;19.962;2024-02-28T01:16:05;98385.41;;;15.26;78.22
73171;BME280;61381;50.118;19.962;2024-02-28T01:21:06;98387.66;;;15.33;77.69
73171;BME280;61381;50.118;19.962;2024-02-28T01:26:07;98397.16;;;15.39;77.39
73171;BME280;61381;50.118;19.962;2024-02-28T01:31:09;98394.00;;;15.28;77.89
73171;BME280;61381;50.118;19.962;2024-02-28T01:36:11;98399.38;;;15.37;76.94
73171;BME280;61381;50.118;19.962;2024-02-28T01:41:12;98394.16;;;15.14;78.03
73171;BME280;61381;50.118;19.962;2024-02-28T01:46:20;98392.84;;;15.73;75.32
73171;BME280;61381;50.118;19.962;2024-02-28T01:51:23;98387.63;;;15.15;78.52
73171;BME280;61381;50.118;19.962;2024-02-28T01:56:25;98392.53;;;15.31;77.02
73171;BME280;61381;50.118;19.962;2024-02-28T02:01:28;98386.03;;;14.97;78.37
73171;BME280;61381;50.118;19.962;2024-02-28T02:06:29;98385.69;;;14.81;78.41
73171;BME280;61381;50.118;19.962;2024-02-28T02:11:30;98381.44;;;14.89;78.26
73171;BME280;61381;50.118;19.962;2024-02-28T02:16:32;98387.63;;;15.15;76.22
73171;BME280;61381;50.118;19.962;2024-02-28T02:21:34;98375.91;;;14.54;80.63
73171;BME280;61381;50.118;19.962;2024-02-28T02:26:37;98374.28;;;14.35;81.04
73171;BME280;61381;50.118;19.962;2024-02-28T02:31:37;98362.69;;;15.10;77.42
73171;BME280;61381;50.118;19.962;2024-02-28T02:36:38;98378.84;;;14.66;79.02
73171;BME280;61381;50.118;19.962;2024-02-28T02:41:41;98383.81;;;14.90;77.91
73171;BME280;61381;50.118;19.962;2024-02-28T02:46:41;98371.72;;;14.30;80.01
73171;BME280;61381;50.118;19.962;2024-02-28T02:51:42;98369.69;;;14.36;80.53
73171;BME280;61381;50.118;19.962;2024-02-28T02:56:45;98379.34;;;14.94;78.02
73171;BME280;61381;50.118;19.962;2024-02-28T03:01:46;98394.06;;;14.71;78.90
73171;BME280;61381;50.118;19.962;2024-02-28T03:06:46;98394.41;;;14.87;78.42
73171;BME280;61381;50.118;19.962;2024-02-28T03:11:49;98389.38;;;15.20;76.56
73171;BME280;61381;50.118;19.962;2024-02-28T03:16:49;98384.63;;;14.51;80.16
73171;BME280;61381;50.118;19.962;2024-02-28T03:21:50;98391.72;;;14.87;78.63
73171;BME280;61381;50.118;19.962;2024-02-28T03:26:53;98393.66;;;15.12;77.76
73171;BME280;61381;50.118;19.962;2024-02-28T03:31:53;98389.53;;;15.15;76.86
73171;BME280;61381;50.118;19.962;2024-02-28T03:36:54;98398.91;;;15.26;76.55
73171;BME280;61381;50.118;19.962;2024-02-28T03:41:57;98402.38;;;14.92;78.54
73171;BME280;61381;50.118;19.962;2024-02-28T03:46:57;98391.47;;;15.14;77.39
73171;BME280;61381;50.118;19.962;2024-02-28T03:51:58;98399.03;;;15.04;78.22
73171;BME280;61381;50.118;19.962;2024-02-28T03:57:01;98389.50;;;14.97;79.08
73171;BME280;61381;50.118;19.962;2024-02-28T04:02:01;98403.91;;;14.75;79.45
73171;BME280;61381;50.118;19.962;2024-02-28T04:07:02;98411.94;;;14.58;79.99
73171;BME280;61381;50.118;19.962;2024-02-28T04:12:05;98419.13;;;14.71;78.57
73171;BME280;61381;50.118;19.962;2024-02-28T04:17:06;98418.59;;;14.20;81.49
73171;BME280;61381;50.118;19.962;2024-02-28T04:22:07;98414.50;;;14.23;82.03
73171;BME280;61381;50.118;19.962;2024-02-28T04:27:10;98427.56;;;14.78;80.87
73171;BME280;61381;50.118;19.962;2024-02-28T04:32:10;98435.34;;;14.80;79.48
73171;BME280;61381;50.118;19.962;2024-02-28T04:37:11;98437.88;;;14.45;81.65
73171;BME280;61381;50.118;19.962;2024-02-28T04:42:14;98445.22;;;15.02;79.83
73171;BME280;61381;50.118;19.962;2024-02-28T04:47:15;98428.06;;;14.49;82.35
73171;BME280;61381;50.118;19.962;2024-02-28T04:52:16;98443.13;;;14.41;82.56
73171;BME280;61381;50.118;19.962;2024-02-28T04:57:18;98423.31;;;14.15;86.05
73171;BME280;61381;50.118;19.962;2024-02-28T05:02:19;98439.91;;;14.71;82.94
73171;BME280;61381;50.118;19.962;2024-02-28T05:07:20;98439.91;;;14.71;82.08
73171;BME280;61381;50.118;19.962;2024-02-28T05:12:23;98433.16;;;14.51;82.48
73171;BME280;61381;50.118;19.962;2024-02-28T05:17:23;98445.78;;;13.79;86.77
73171;BME280;61381;50.118;19.962;2024-02-28T05:22:24;98436.66;;;14.20;85.59
73171;BME280;61381;50.118;19.962;2024-02-28T05:27:27;98430.41;;;14.42;84.39
73171;BME280;61381;50.118;19.962;2024-02-28T05:32:27;98429.47;;;14.47;83.46
73171;BME280;61381;50.118;19.962;2024-02-28T05:37:28;98432.38;;;14.50;82.38
73171;BME280;61381;50.118;19.962;2024-02-28T05:42:30;98429.44;;;14.29;83.99
73171;BME280;61381;50.118;19.962;2024-02-28T05:47:31;98428.44;;;14.25;82.63
73171;BME280;61381;50.118;19.962;2024-02-28T05:52:32;98427.19;;;14.31;80.75
73171;BME280;61381;50.118;19.962;2024-02-28T05:57:35;98442.50;;;15.02;78.10
73171;BME280;61381;50.118;19.962;2024-02-28T06:02:36;98451.78;;;15.27;77.28
73171;BME280;61381;50.118;19.962;2024-02-28T06:07:36;98455.91;;;15.60;77.13
73171;BME280;61381;50.118;19.962;2024-02-28T06:12:39;98477.50;;;15.51;78.60
73171;BME280;61381;50.118;19.962;2024-02-28T06:17:40;98480.06;;;15.65;77.27
73171;BME280;61381;50.118;19.962;2024-02-28T06:22:41;98492.13;;;15.76;77.63
73171;BME280;61381;50.118;19.962;2024-02-28T06:27:43;98496.44;;;15.77;77.17
73171;BME280;61381;50.118;19.962;2024-02-28T06:32:44;98494.22;;;15.79;76.70
73171;BME280;61381;50.118;19.962;2024-02-28T06:37:45;98501.50;;;16.14;74.64
73171;BME280;61381;50.118;19.962;2024-02-28T06:42:47;98512.63;;;16.21;74.59
73171;BME280;61381;50.118;19.962;2024-02-28T06:47:48;98503.72;;;16.20;73.79
73171;BME280;61381;50.118;19.962;2024-02-28T06:52:49;98508.19;;;16.16;74.33
73171;BME280;61381;50.118;19.962;2024-02-28T06:57:51;98526.94;;;17.16;71.58
73171;BME280;61381;50.118;19.962;2024-02-28T07:02:52;98528.03;;;17.24;70.38
73171;BME280;61381;50.118;19.962;2024-02-28T07:07:53;98533.03;;;17.43;68.70
73171;BME280;61381;50.118;19.962;2024-02-28T07:12:56;98538.78;;;17.83;67.33
73171;BME280;61381;50.118;19.962;2024-02-28T07:17:56;98532.69;;;17.65;68.46
73171;BME280;61381;50.118;19.962;2024-02-28T07:22:57;98541.28;;;17.68;68.12
73171;BME280;61381;50.118;19.962;2024-02-28T07:28:00;98538.19;;;18.20;67.17
73171;BME280;61381;50.118;19.962;2024-02-28T07:33:00;98542.13;;;17.89;67.10
73171;BME280;61381;50.118;19.962;2024-02-28T07:38:01;98541.44;;;18.13;65.77
73171;BME280;61381;50.118;19.962;2024-02-28T07:43:04;98541.31;;;18.56;65.50
73171;BME280;61381;50.118;19.962;2024-02-28T07:48:05;98554.44;;;18.99;64.57
73171;BME280;61381;50.118;19.962;2024-02-28T07:53:06;98558.75;;;19.13;63.74
73171;BME280;61381;50.118;19.962;2024-02-28T07:58:08;98563.94;;;19.42;62.88
73171;BME280;61381;50.118;19.962;2024-02-28T08:03:09;98556.22;;;19.20;63.30
73171;BME280;61381;50.118;19.962;2024-02-28T08:08:10;98554.28;;;18.38;64.92
73171;BME280;61381;50.118;19.962;2024-02-28T08:13:12;98556.28;;;17.95;66.11
73171;BME280;61381;50.118;19.962;2024-02-28T08:18:13;98555.50;;;18.07;66.29
73171;BME280;61381;50.118;19.962;2024-02-28T08:23:14;98543.19;;;17.67;67.02
73171;BME280;61381;50.118;19.962;2024-02-28T08:28:16;98546.78;;;17.80;68.09
73171;BME280;61381;50.118;19.962;2024-02-28T08:33:17;98542.94;;;17.60;68.57
73171;BME280;61381;50.118;19.962;2024-02-28T08:38:18;98547.56;;;18.56;65.27
73171;BME280;61381;50.118;19.962;2024-02-28T08:43:20;98554.72;;;18.73;62.80
73171;BME280;61381;50.118;19.962;2024-02-28T08:48:21;98547.88;;;19.13;59.29
73171;BME280;61381;50.118;19.962;2024-02-28T08:53:22;98567.06;;;19.57;58.24
73171;BME280;61381;50.118;19.962;2024-02-28T08:58:25;98569.50;;;19.99;56.01
73171;BME280;61381;50.118;19.962;2024-02-28T09:03:25;98578.66;;;20.35;56.30
73171;BME280;61381;50.118;19.962;2024-02-28T09:08:26;98574.22;;;20.43;55.41
73171;BME280;61381;50.118;19.962;2024-02-28T09:13:28;98575.06;;;20.31;56.77
73171;BME280;61381;50.118;19.962;2024-02-28T09:18:29;98589.63;;;20.10;57.33
73171;BME280;61381;50.118;19.962;2024-02-28T09:23:30;98578.75;;;20.39;55.30
73171;BME280;61381;50.118;19.962;2024-02-28T09:28:33;98583.78;;;19.96;56.91
73171;BME280;61381;50.118;19.962;2024-02-28T09:33:33;98581.47;;;19.57;58.22
73171;BME280;61381;50.118;19.962;2024-02-28T09:38:34;98577.50;;;19.42;59.84
73171;BME280;61381;50.118;19.962;2024-02-28T09:43:40;98580.81;;;19.23;59.06
73171;BME280;61381;50.118;19.962;2024-02-28T09:48:41;98582.34;;;18.54;61.93
73171;BME280;61381;50.118;19.962;2024-02-28T09:53:42;98589.06;;;19.39;58.87
73171;BME280;61381;50.118;19.962;2024-02-28T09:58:45;98599.22;;;19.67;57.88
73171;BME280;61381;50.118;19.962;2024-02-28T10:03:47;98598.66;;;19.49;57.52
73171;BME280;61381;50.118;19.962;2024-02-28T10:08:49;98605.78;;;19.04;58.87
73171;BME280;61381;50.118;19.962;2024-02-28T10:13:52;98593.81;;;19.42;57.24
73171;BME280;61381;50.118;19.962;2024-02-28T10:18:53;98604.69;;;19.18;59.30
73171;BME280;61381;50.118;19.962;2024-02-28T10:23:57;98601.16;;;19.79;57.94
73171;BME280;61381;50.118;19.962;2024-02-28T10:29:00;98588.44;;;19.71;58.32
73171;BME280;61381;50.118;19.962;2024-02-28T10:34:02;98604.75;;;19.71;56.88
73171;BME280;61381;50.118;19.962;2024-02-28T10:39:03;98598.03;;;20.05;55.96
73171;BME280;61381;50.118;19.962;2024-02-28T10:44:05;98606.53;;;20.44;54.75
73171;BME280;61381;50.118;19.962;2024-02-28T10:49:06;98604.50;;;20.41;54.26
73171;BME280;61381;50.118;19.962;2024-02-28T10:54:08;98615.47;;;20.73;52.92
73171;BME280;61381;50.118;19.962;2024-02-28T10:59:11;98604.78;;;20.52;54.41
73171;BME280;61381;50.118;19.962;2024-02-28T11:04:14;98613.34;;;20.66;55.00
73171;BME280;61381;50.118;19.962;2024-02-28T11:09:19;98607.66;;;20.43;56.11
73171;BME280;61381;50.118;19.962;2024-02-28T11:14:22;98605.25;;;19.48;55.73
73171;BME280;61381;50.118;19.962;2024-02-28T11:19:23;98618.50;;;19.37;57.83
73171;BME280;61381;50.118;19.962;2024-02-28T11:24:24;98611.88;;;20.00;56.78
73171;BME280;61381;50.118;19.962;2024-02-28T11:29:28;98613.59;;;20.61;55.26
73171;BME280;61381;50.118;19.962;2024-02-28T11:34:29;98608.84;;;21.18;52.59
73171;BME280;61381;50.118;19.962;2024-02-28T11:39:30;98609.09;;;20.97;53.08
73171;BME280;61381;50.118;19.962;2024-02-28T11:44:33;98615.44;;;21.33;51.40
73171;BME280;61381;50.118;19.962;2024-02-28T11:49:33;98610.44;;;21.87;49.81
73171;BME280;61381;50.118;19.962;2024-02-28T11:54:34;98619.34;;;21.68;50.71
73171;BME280;61381;50.118;19.962;2024-02-28T11:59:36;98619.78;;;22.64;48.80
73171;BME280;61381;50.118;19.962;2024-02-28T12:04:37;98615.25;;;22.13;50.24
73171;BME280;61381;50.118;19.962;2024-02-28T12:09:38;98614.09;;;21.43;51.62
73171;BME280;61381;50.118;19.962;2024-02-28T12:14:41;98607.53;;;21.80;49.50
73171;BME280;61381;50.118;19.962;2024-02-28T12:19:42;98613.66;;;21.57;49.72
73171;BME280;61381;50.118;19.962;2024-02-28T12:24:43;98611.03;;;21.29;50.07
73171;BME280;61381;50.118;19.962;2024-02-28T12:29:45;98610.84;;;21.89;49.58
73171;BME280;61381;50.118;19.962;2024-02-28T12:34:46;98615.66;;;21.76;49.47
73171;BME280;61381;50.118;19.962;2024-02-28T12:39:47;98617.63;;;21.28;48.80
73171;BME280;61381;50.118;19.962;2024-02-28T12:44:49;98612.78;;;21.05;50.65
73171;BME280;61381;50.118;19.962;2024-02-28T12:49:50;98618.22;;;22.24;47.71
73171;BME280;61381;50.118;19.962;2024-02-28T12:54:51;98626.75;;;22.22;47.14
73171;BME280;61381;50.118;19.962;2024-02-28T12:59:53;98624.28;;;22.33;47.97
73171;BME280;61381;50.118;19.962;2024-02-28T13:04:54;98623.88;;;22.15;48.16
73171;BME280;61381;50.118;19.962;2024-02-28T13:09:55;98628.19;;;22.16;46.90
73171;BME280;61381;50.118;19.962;2024-02-28T13:14:57;98635.56;;;22.51;46.82
73171;BME280;61381;50.118;19.962;2024-02-28T13:19:58;98627.06;;;22.37;46.96
73171;BME280;61381;50.118;19.962;2024-02-28T13:24:59;98624.06;;;22.06;47.08
73171;BME280;61381;50.118;19.962;2024-02-28T13:30:02;98638.50;;;21.71;49.37
73171;BME280;61381;50.118;19.962;2024-02-28T13:35:03;98636.31;;;21.45;48.52
73171;BME280;61381;50.118;19.962;2024-02-28T13:40:05;98643.53;;;21.69;48.15
73171;BME280;61381;50.118;19.962;2024-02-28T13:45:08;98636.69;;;21.44;47.53
73171;BME280;61381;50.118;19.962;2024-02-28T13:50:09;98642.41;;;21.23;47.74
73171;BME280;61381;50.118;19.962;2024-02-28T13:55:10;98639.38;;;20.52;49.82
73171;BME280;61381;50.118;19.962;2024-02-28T14:00:14;98644.16;;;20.99;49.41
73171;BME280;61381;50.118;19.962;2024-02-28T14:05:15;98637.97;;;20.58;50.36
73171;BME280;61381;50.118;19.962;2024-02-28T14:10:16;98645.44;;;20.61;50.54
73171;BME280;61381;50.118;19.962;2024-02-28T14:15:19;98639.13;;;21.01;50.70
73171;BME280;61381;50.118;19.962;2024-02-28T14:20:20;98638.78;;;20.58;52.45
73171;BME280;61381;50.118;19.962;2024-02-28T14:25:22;98643.25;;;20.38;52.11
73171;BME280;61381;50.118;19.962;2024-02-28T14:30:24;98640.53;;;20.10;52.54
73171;BME280;61381;50.118;19.962;2024-02-28T14:35:25;98644.41;;;19.72;53.76
73171;BME280;61381;50.118;19.962;2024-02-28T14:40:26;98650.09;;;19.30;55.03
73171;BME280;61381;50.118;19.962;2024-02-28T14:45:28;98654.50;;;19.96;54.06
73171;BME280;61381;50.118;19.962;2024-02-28T14:50:29;98653.66;;;20.20;53.57
73171;BME280;61381;50.118;19.962;2024-02-28T14:55:29;98670.38;;;20.35;53.82
73171;BME280;61381;50.118;19.962;2024-02-28T15:00:32;98667.41;;;19.99;54.60
73171;BME280;61381;50.118;19.962;2024-02-28T15:05:32;98683.81;;;19.53;56.27
73171;BME280;61381;50.118;19.962;2024-02-28T15:10:33;98680.31;;;20.14;54.27
73171;BME280;61381;50.118;19.962;2024-02-28T15:15:36;98676.00;;;20.01;55.84
73171;BME280;61381;50.118;19.962;2024-02-28T15:20:36;98686.91;;;19.89;56.65
73171;BME280;61381;50.118;19.962;2024-02-28T15:25:37;98687.31;;;19.54;58.44
73171;BME280;61381;50.118;19.962;2024-02-28T15:30:39;98692.16;;;19.11;60.52
73171;BME280;61381;50.118;19.962;2024-02-28T15:35:40;98687.81;;;18.77;61.02
73171;BME280;61381;50.118;19.962;2024-02-28T15:40:41;98697.88;;;18.97;61.24
73171;BME280;61381;50.118;19.962;2024-02-28T15:45:43;98690.94;;;18.66;61.90
73171;BME280;61381;50.118;19.962;2024-02-28T15:50:44;98689.41;;;18.78;61.64
73171;BME280;61381;50.118;19.962;2024-02-28T15:55:45;98701.81;;;18.87;60.15
73171;BME280;61381;50.118;19.962;2024-02-28T16:00:48;98704.66;;;18.49;61.85
73171;BME280;61381;50.118;19.962;2024-02-28T16:05:49;98692.81;;;18.32;62.48
73171;BME280;61381;50.118;19.962;2024-02-28T16:10:50;98716.69;;;18.81;61.56
73171;BME280;61381;50.118;19.962;2024-02-28T16:15:52;98720.00;;;18.45;63.15
73171;BME280;61381;50.118;19.962;2024-02-28T16:20:53;98724.59;;;18.02;65.09
73171;BME280;61381;50.118;19.962;2024-02-28T16:25:54;98730.97;;;18.06;65.32
73171;BME280;61381;50.118;19.962;2024-02-28T16:30:56;98728.97;;;17.86;67.06
73171;BME280;61381;50.118;19.962;2024-02-28T16:35:57;98734.00;;;17.66;69.12
73171;BME280;61381;50.118;19.962;2024-02-28T16:40:58;98733.34;;;17.69;68.93
73171;BME280;61381;50.118;19.962;2024-02-28T16:46:00;98741.41;;;17.39;70.07
73171;BME280;61381;50.118;19.962;2024-02-28T16:51:01;98740.22;;;17.02;69.74
73171;BME280;61381;50.118;19.962;2024-02-28T16:56:02;98734.31;;;16.73;68.67
73171;BME280;61381;50.118;19.962;2024-02-28T17:01:04;98752.78;;;17.15;66.69
73171;BME280;61381;50.118;19.962;2024-02-28T17:06:05;98757.84;;;17.25;65.71
73171;BME280;61381;50.118;19.962;2024-02-28T17:11:06;98755.50;;;16.98;66.36
73171;BME280;61381;50.118;19.962;2024-02-28T17:16:08;98763.41;;;16.41;69.97
73171;BME280;61381;50.118;19.962;2024-02-28T17:21:09;98759.06;;;16.05;70.62
73171;BME280;61381;50.118;19.962;2024-02-28T17:26:10;98762.59;;;16.23;71.25
73171;BME280;61381;50.118;19.962;2024-02-28T17:31:12;98772.34;;;16.51;70.82
73171;BME280;61381;50.118;19.962;2024-02-28T17:36:14;98772.91;;;16.21;71.70
73171;BME280;61381;50.118;19.962;2024-02-28T17:41:14;98782.53;;;16.45;71.60
73171;BME280;61381;50.118;19.962;2024-02-28T17:46:17;98790.34;;;16.73;71.88
73171;BME280;61381;50.118;19.962;2024-02-28T17:51:17;98781.97;;;16.17;72.68
73171;BME280;61381;50.118;19.962;2024-02-28T17:56:18;98785.66;;;16.38;72.29
73171;BME280;61381;50.118;19.962;2024-02-28T18:01:21;98797.63;;;16.37;73.09
73171;BME280;61381;50.118;19.962;2024-02-28T18:06:22;98789.13;;;16.13;73.58
73171;BME280;61381;50.118;19.962;2024-02-28T18:11:26;98789.22;;;16.65;71.90
73171;BME280;61381;50.118;19.962;2024-02-28T18:16:28;98791.09;;;16.47;72.14
73171;BME280;61381;50.118;19.962;2024-02-28T18:21:29;98786.28;;;15.78;75.13
73171;BME280;61381;50.118;19.962;2024-02-28T18:26:30;98791.97;;;15.76;75.20
73171;BME280;61381;50.118;19.962;2024-02-28T18:31:32;98790.56;;;15.79;75.10
73171;BME280;61381;50.118;19.962;2024-02-28T18:36:33;98792.03;;;15.31;77.20
73171;BME280;61381;50.118;19.962;2024-02-28T18:41:34;98790.53;;;15.16;77.71
73171;BME280;61381;50.118;19.962;2024-02-28T18:46:36;98791.78;;;14.96;79.98
73171;BME280;61381;50.118;19.962;2024-02-28T18:51:37;98789.94;;;15.50;77.14
73171;BME280;61381;50.118;19.962;2024-02-28T18:56:37;98794.03;;;15.16;78.55
73171;BME280;61381;50.118;19.962;2024-02-28T19:01:40;98804.44;;;15.32;78.03
73171;BME280;61381;50.118;19.962;2024-02-28T19:06:42;98819.03;;;15.08;79.42
73171;BME280;61381;50.118;19.962;2024-02-28T19:11:43;98820.75;;;14.68;80.81
73171;BME280;61381;50.118;19.962;2024-02-28T19:16:45;98824.84;;;14.37;84.36
73171;BME280;61381;50.118;19.962;2024-02-28T19:21:46;98834.41;;;14.71;82.54
73171;BME280;61381;50.118;19.962;2024-02-28T19:26:47;98837.00;;;15.13;79.05
73171;BME280;61381;50.118;19.962;2024-02-28T19:31:50;98825.84;;;14.55;82.30
73171;BME280;61381;50.118;19.962;2024-02-28T19:36:50;98837.25;;;14.38;82.39
73171;BME280;61381;50.118;19.962;2024-02-28T19:41:51;98838.63;;;14.36;81.83
73171;BME280;61381;50.118;19.962;2024-02-28T19:46:55;98832.13;;;14.51;81.49
73171;BME280;61381;50.118;19.962;2024-02-28T19:51:56;98843.03;;;14.73;80.37
73171;BME280;61381;50.118;19.962;2024-02-28T19:56:57;98844.78;;;14.92;79.37
73171;BME280;61381;50.118;19.962;2024-02-28T20:01:59;98827.94;;;14.58;81.44
73171;BME280;61381;50.118;19.962;2024-02-28T20:07:00;98848.78;;;14.80;80.30
73171;BME280;61381;50.118;19.962;2024-02-28T20:12:01;98841.50;;;15.18;78.18
73171;BME280;61381;50.118;19.962;2024-02-28T20:17:06;98850.69;;;15.16;78.42
73171;BME280;61381;50.118;19.962;2024-02-28T20:22:08;98852.22;;;15.09;78.69
73171;BME280;61381;50.118;19.962;2024-02-28T20:27:10;98859.78;;;14.84;80.06
73171;BME280;61381;50.118;19.962;2024-02-28T20:32:12;98869.06;;;15.28;78.43
73171;BME280;61381;50.118;19.962;2024-02-28T20:37:13;98867.19;;;15.15;78.26
73171;BME280;61381;50.118;19.962;2024-02-28T20:42:13;98868.81;;;15.02;78.81
73171;BME280;61381;50.118;19.962;2024-02-28T20:47:16;98876.50;;;15.09;78.80
73171;BME280;61381;50.118;19.962;2024-02-28T20:52:17;98878.84;;;15.24;78.01
73171;BME280;61381;50.118;19.962;2024-02-28T20:57:17;98880.63;;;15.29;77.38
73171;BME280;61381;50.118;19.962;2024-02-28T21:02:20;98891.16;;;15.53;76.69
73171;BME280;61381;50.118;19.962;2024-02-28T21:07:21;98886.81;;;14.93;79.25
73171;BME280;61381;50.118;19.962;2024-02-28T21:12:22;98891.34;;;14.84;80.40
73171;BME280;61381;50.118;19.962;2024-02-28T21:17:24;98897.94;;;15.28;79.16
73171;BME280;61381;50.118;19.962;2024-02-28T21:22:25;98903.16;;;15.24;78.60
73171;BME280;61381;50.118;19.962;2024-02-28T21:27:26;98896.97;;;14.73;80.19
73171;BME280;61381;50.118;19.962;2024-02-28T21:32:28;98889.97;;;14.72;80.93
73171;BME280;61381;50.118;19.962;2024-02-28T21:37:29;98893.53;;;14.95;80.44
73171;BME280;61381;50.118;19.962;2024-02-28T21:42:30;98889.09;;;14.02;84.81
73171;BME280;61381;50.118;19.962;2024-02-28T21:47:32;98895.09;;;14.13;84.28
73171;BME280;61381;50.118;19.962;2024-02-28T21:52:33;98896.72;;;13.81;85.59
73171;BME280;61381;50.118;19.962;2024-02-28T21:57:34;98896.81;;;14.09;84.92
73171;BME280;61381;50.118;19.962;2024-02-28T22:02:36;98897.03;;;14.54;82.04
73171;BME280;61381;50.118;19.962;2024-02-28T22:07:37;98904.22;;;14.45;81.05
73171;BME280;61381;50.118;19.962;2024-02-28T22:12:38;98910.09;;;14.47;80.65
73171;BME280;61381;50.118;19.962;2024-02-28T22:17:40;98904.94;;;14.78;79.46
73171;BME280;61381;50.118;19.962;2024-02-28T22:22:41;98912.63;;;14.85;78.83
73171;BME280;61381;50.118;19.962;2024-02-28T22:27:42;98911.94;;;14.52;80.03
73171;BME280;61381;50.118;19.962;2024-02-28T22:32:44;98906.91;;;14.31;80.67
73171;BME280;61381;50.118;19.962;2024-02-28T22:37:45;98921.09;;;13.90;82.36
73171;BME280;61381;50.118;19.962;2024-02-28T22:42:46;98916.03;;;14.02;82.04
73171;BME280;61381;50.118;19.962;2024-02-28T22:47:48;98914.06;;;13.42;84.01
73171;BME280;61381;50.118;19.962;2024-02-28T22:52:49;98928.91;;;13.59;82.72
73171;BME280;61381;50.118;19.962;2024-02-28T22:57:50;98921.69;;;13.16;84.87
73171;BME280;61381;50.118;19.962;2024-02-28T23:02:52;98925.53;;;13.67;82.08
73171;BME280;61381;50.118;19.962;2024-02-28T23:07:53;98923.66;;;13.29;82.96
73171;BME280;61381;50.118;19.962;2024-02-28T23:12:55;98921.16;;;13.52;81.64
73171;BME280;61381;50.118;19.962;2024-02-28T23:17:57;98917.94;;;13.69;80.75
73171;BME280;61381;50.118;19.962;2024-02-28T23:22:58;98923.97;;;14.13;77.70
73171;BME280;61381;50.118;19.962;2024-02-28T23:27:59;98921.34;;;13.42;80.65
73171;BME280;61381;50.118;19.962;2024-02-28T23:33:01;98931.28;;;13.93;77.46
73171;BME280;61381;50.118;19.962;2024-02-28T23:38:03;98923.88;;;14.45;75.80
73171;BME280;61381;50.118;19.962;2024-02-28T23:43:03;98917.94;;;14.02;76.52
73171;BME280;61381;50.118;19.962;2024-02-28T23:48:06;98929.97;;;13.58;80.57
73171;BME280;61381;50.118;19.962;2024-02-28T23:53:07;98919.22;;;13.58;80.37
73171;BME280;61381;50.118;19.962;2024-02-28T23:58:08;98927.44;;;14.13;77.54
